sensor_id;sensor_type;location;lat;lon;timestamp;temperature;humidity
35680;DHT22;21803;53.586;10.040;2022-12-08T00:00:48;17.70;44.70
35680;DHT22;21803;53.586;10.040;2022-12-08T00:03:13;17.70;44.70
35680;DHT22;21803;53.586;10.040;2022-12-08T00:05:46;17.80;44.80
35680;DHT22;21803;53.586;10.040;2022-12-08T00:08:30;17.70;44.70
35680;DHT22;21803;53.586;10.040;2022-12-08T00:11:15;17.70;44.70
35680;DHT22;21803;53.586;10.040;2022-12-08T00:13:41;17.80;44.80
35680;DHT22;21803;53.586;10.040;2022-12-08T00:16:07;17.70;44.70
35680;DHT22;21803;53.586;10.040;2022-12-08T00:18:33;17.70;44.70
35680;DHT22;21803;53.586;10.040;2022-12-08T00:20:59;17.70;44.70
35680;DHT22;21803;53.586;10.040;2022-12-08T00:23:25;17.70;44.70
35680;DHT22;21803;53.586;10.040;2022-12-08T00:25:51;17.80;44.80
35680;DHT22;21803;53.586;10.040;2022-12-08T00:28:16;17.70;44.70
35680;DHT22;21803;53.586;10.040;2022-12-08T00:30:42;17.80;44.80
35680;DHT22;21803;53.586;10.040;2022-12-08T00:33:08;17.80;44.80
35680;DHT22;21803;53.586;10.040;2022-12-08T00:35:34;17.80;44.80
35680;DHT22;21803;53.586;10.040;2022-12-08T00:38:00;17.80;44.70
35680;DHT22;21803;53.586;10.040;2022-12-08T00:40:25;17.80;44.70
35680;DHT22;21803;53.586;10.040;2022-12-08T00:42:51;17.70;44.70
35680;DHT22;21803;53.586;10.040;2022-12-08T00:45:16;17.80;44.70
35680;DHT22;21803;53.586;10.040;2022-12-08T00:47:42;17.80;44.70
35680;DHT22;21803;53.586;10.040;2022-12-08T00:50:08;17.80;44.70
35680;DHT22;21803;53.586;10.040;2022-12-08T00:52:34;17.80;44.70
35680;DHT22;21803;53.586;10.040;2022-12-08T00:55:00;17.80;44.80
35680;DHT22;21803;53.586;10.040;2022-12-08T00:57:25;17.80;44.80
35680;DHT22;21803;53.586;10.040;2022-12-08T00:59:51;17.80;44.70
35680;DHT22;21803;53.586;10.040;2022-12-08T01:02:16;17.70;44.70
35680;DHT22;21803;53.586;10.040;2022-12-08T01:04:42;17.70;44.70
35680;DHT22;21803;53.586;10.040;2022-12-08T01:07:07;17.80;44.70
35680;DHT22;21803;53.586;10.040;2022-12-08T01:09:33;17.70;44.60
35680;DHT22;21803;53.586;10.040;2022-12-08T01:11:59;17.70;44.70
35680;DHT22;21803;53.586;10.040;2022-12-08T01:14:25;17.80;44.80
35680;DHT22;21803;53.586;10.040;2022-12-08T01:16:50;17.80;44.80
35680;DHT22;21803;53.586;10.040;2022-12-08T01:19:16;17.70;44.60
35680;DHT22;21803;53.586;10.040;2022-12-08T01:21:43;17.80;44.70
35680;DHT22;21803;53.586;10.040;2022-12-08T01:24:16;17.80;44.70
35680;DHT22;21803;53.586;10.040;2022-12-08T01:26:43;17.70;44.70
35680;DHT22;21803;53.586;10.040;2022-12-08T01:29:09;17.70;44.60
35680;DHT22;21803;53.586;10.040;2022-12-08T01:31:35;17.80;44.70
35680;DHT22;21803;53.586;10.040;2022-12-08T01:34:00;17.70;44.60
35680;DHT22;21803;53.586;10.040;2022-12-08T01:36:29;17.80;44.80
35680;DHT22;21803;53.586;10.040;2022-12-08T01:38:59;17.80;44.70
35680;DHT22;21803;53.586;10.040;2022-12-08T01:41:30;17.70;44.60
35680;DHT22;21803;53.586;10.040;2022-12-08T01:46:27;17.70;44.70
35680;DHT22;21803;53.586;10.040;2022-12-08T01:49:03;17.70;44.70
35680;DHT22;21803;53.586;10.040;2022-12-08T01:51:32;17.70;44.70
35680;DHT22;21803;53.586;10.040;2022-12-08T01:53:59;17.70;44.70
35680;DHT22;21803;53.586;10.040;2022-12-08T01:59:39;17.70;44.60
35680;DHT22;21803;53.586;10.040;2022-12-08T02:02:07;17.80;44.60
35680;DHT22;21803;53.586;10.040;2022-12-08T02:04:33;17.70;44.70
35680;DHT22;21803;53.586;10.040;2022-12-08T02:06:59;17.70;44.60
35680;DHT22;21803;53.586;10.040;2022-12-08T02:09:25;17.70;44.60
35680;DHT22;21803;53.586;10.040;2022-12-08T02:11:51;17.80;44.70
35680;DHT22;21803;53.586;10.040;2022-12-08T02:14:17;17.70;44.60
35680;DHT22;21803;53.586;10.040;2022-12-08T02:25:16;17.70;44.60
35680;DHT22;21803;53.586;10.040;2022-12-08T02:28:09;17.80;44.70
35680;DHT22;21803;53.586;10.040;2022-12-08T02:30:45;17.70;44.60
35680;DHT22;21803;53.586;10.040;2022-12-08T02:41:59;17.70;44.60
35680;DHT22;21803;53.586;10.040;2022-12-08T02:44:30;17.70;44.70
35680;DHT22;21803;53.586;10.040;2022-12-08T02:47:18;17.70;44.60
35680;DHT22;21803;53.586;10.040;2022-12-08T02:49:44;17.80;44.60
35680;DHT22;21803;53.586;10.040;2022-12-08T02:54:36;17.70;44.60
35680;DHT22;21803;53.586;10.040;2022-12-08T02:57:17;17.80;44.70
35680;DHT22;21803;53.586;10.040;2022-12-08T03:02:41;17.70;44.60
35680;DHT22;21803;53.586;10.040;2022-12-08T03:07:59;17.70;44.60
35680;DHT22;21803;53.586;10.040;2022-12-08T03:10:53;17.70;44.60
35680;DHT22;21803;53.586;10.040;2022-12-08T03:13:23;17.70;44.60
35680;DHT22;21803;53.586;10.040;2022-12-08T03:15:51;17.70;44.60
35680;DHT22;21803;53.586;10.040;2022-12-08T03:18:21;17.70;44.60
35680;DHT22;21803;53.586;10.040;2022-12-08T03:20:48;17.70;44.60
35680;DHT22;21803;53.586;10.040;2022-12-08T03:23:16;17.70;45.20
35680;DHT22;21803;53.586;10.040;2022-12-08T03:25:49;17.70;44.60
35680;DHT22;21803;53.586;10.040;2022-12-08T03:28:15;17.70;44.70
35680;DHT22;21803;53.586;10.040;2022-12-08T03:30:43;17.70;44.60
35680;DHT22;21803;53.586;10.040;2022-12-08T03:33:23;17.70;44.70
35680;DHT22;21803;53.586;10.040;2022-12-08T03:35:49;17.70;44.60
35680;DHT22;21803;53.586;10.040;2022-12-08T03:38:16;17.70;44.60
35680;DHT22;21803;53.586;10.040;2022-12-08T03:40:42;17.70;44.70
35680;DHT22;21803;53.586;10.040;2022-12-08T03:43:08;17.70;44.60
35680;DHT22;21803;53.586;10.040;2022-12-08T03:45:34;17.70;44.60
35680;DHT22;21803;53.586;10.040;2022-12-08T03:48:00;17.70;44.60
35680;DHT22;21803;53.586;10.040;2022-12-08T03:50:26;17.70;44.60
35680;DHT22;21803;53.586;10.040;2022-12-08T03:52:51;17.70;44.60
35680;DHT22;21803;53.586;10.040;2022-12-08T03:55:17;17.70;44.60
35680;DHT22;21803;53.586;10.040;2022-12-08T03:57:43;17.70;44.60
35680;DHT22;21803;53.586;10.040;2022-12-08T04:00:13;17.70;44.70
35680;DHT22;21803;53.586;10.040;2022-12-08T04:02:39;17.70;44.60
35680;DHT22;21803;53.586;10.040;2022-12-08T04:05:05;17.70;44.60
35680;DHT22;21803;53.586;10.040;2022-12-08T04:07:30;17.70;44.60
35680;DHT22;21803;53.586;10.040;2022-12-08T04:09:56;17.70;44.60
35680;DHT22;21803;53.586;10.040;2022-12-08T04:12:21;17.70;44.60
35680;DHT22;21803;53.586;10.040;2022-12-08T04:14:47;17.70;44.60
35680;DHT22;21803;53.586;10.040;2022-12-08T04:17:12;17.70;44.60
35680;DHT22;21803;53.586;10.040;2022-12-08T04:19:38;17.70;44.60
35680;DHT22;21803;53.586;10.040;2022-12-08T04:22:05;17.70;44.60
35680;DHT22;21803;53.586;10.040;2022-12-08T04:24:31;17.70;44.60
35680;DHT22;21803;53.586;10.040;2022-12-08T04:26:56;17.80;44.60
35680;DHT22;21803;53.586;10.040;2022-12-08T04:29:22;17.70;44.60
35680;DHT22;21803;53.586;10.040;2022-12-08T04:31:47;17.70;44.60
35680;DHT22;21803;53.586;10.040;2022-12-08T04:34:13;17.70;44.60
35680;DHT22;21803;53.586;10.040;2022-12-08T04:36:38;17.70;44.60
35680;DHT22;21803;53.586;10.040;2022-12-08T04:39:04;17.70;44.60
35680;DHT22;21803;53.586;10.040;2022-12-08T04:41:29;17.70;44.60
35680;DHT22;21803;53.586;10.040;2022-12-08T04:43:55;17.70;44.50
35680;DHT22;21803;53.586;10.040;2022-12-08T04:46:20;17.70;44.60
35680;DHT22;21803;53.586;10.040;2022-12-08T04:48:46;17.70;44.60
35680;DHT22;21803;53.586;10.040;2022-12-08T04:51:16;17.70;44.60
35680;DHT22;21803;53.586;10.040;2022-12-08T04:53:43;17.70;44.60
35680;DHT22;21803;53.586;10.040;2022-12-08T04:56:14;17.70;44.60
35680;DHT22;21803;53.586;10.040;2022-12-08T04:58:39;17.70;44.60
35680;DHT22;21803;53.586;10.040;2022-12-08T05:01:05;17.70;44.60
35680;DHT22;21803;53.586;10.040;2022-12-08T05:03:31;17.70;44.60
35680;DHT22;21803;53.586;10.040;2022-12-08T05:05:58;17.70;44.60
35680;DHT22;21803;53.586;10.040;2022-12-08T05:08:24;17.70;44.60
35680;DHT22;21803;53.586;10.040;2022-12-08T05:10:50;17.70;44.60
35680;DHT22;21803;53.586;10.040;2022-12-08T05:13:15;17.70;44.60
35680;DHT22;21803;53.586;10.040;2022-12-08T05:15:41;17.70;44.60
35680;DHT22;21803;53.586;10.040;2022-12-08T05:18:06;17.70;44.60
35680;DHT22;21803;53.586;10.040;2022-12-08T05:20:33;17.70;44.60
35680;DHT22;21803;53.586;10.040;2022-12-08T05:22:58;17.70;44.60
35680;DHT22;21803;53.586;10.040;2022-12-08T05:25:24;17.70;44.60
35680;DHT22;21803;53.586;10.040;2022-12-08T05:27:49;17.70;44.60
35680;DHT22;21803;53.586;10.040;2022-12-08T05:30:15;17.70;44.60
35680;DHT22;21803;53.586;10.040;2022-12-08T05:32:40;17.70;44.60
35680;DHT22;21803;53.586;10.040;2022-12-08T05:35:06;17.70;44.60
35680;DHT22;21803;53.586;10.040;2022-12-08T05:37:32;17.70;44.60
35680;DHT22;21803;53.586;10.040;2022-12-08T05:39:58;17.70;44.60
35680;DHT22;21803;53.586;10.040;2022-12-08T05:42:23;17.70;44.60
35680;DHT22;21803;53.586;10.040;2022-12-08T05:44:49;17.70;44.60
35680;DHT22;21803;53.586;10.040;2022-12-08T05:47:14;17.70;44.60
35680;DHT22;21803;53.586;10.040;2022-12-08T05:49:40;17.70;44.60
35680;DHT22;21803;53.586;10.040;2022-12-08T05:52:05;17.70;44.60
35680;DHT22;21803;53.586;10.040;2022-12-08T05:54:31;17.70;44.60
35680;DHT22;21803;53.586;10.040;2022-12-08T05:56:56;17.70;44.60
35680;DHT22;21803;53.586;10.040;2022-12-08T05:59:22;17.70;44.60
35680;DHT22;21803;53.586;10.040;2022-12-08T06:01:47;17.70;44.50
35680;DHT22;21803;53.586;10.040;2022-12-08T06:04:13;17.70;44.60
35680;DHT22;21803;53.586;10.040;2022-12-08T06:06:38;17.70;44.60
35680;DHT22;21803;53.586;10.040;2022-12-08T06:09:04;17.70;44.60
35680;DHT22;21803;53.586;10.040;2022-12-08T06:11:31;17.70;44.60
35680;DHT22;21803;53.586;10.040;2022-12-08T06:13:57;17.70;44.60
35680;DHT22;21803;53.586;10.040;2022-12-08T06:16:24;17.70;44.60
35680;DHT22;21803;53.586;10.040;2022-12-08T06:18:50;17.70;44.50
35680;DHT22;21803;53.586;10.040;2022-12-08T06:21:16;17.70;44.60
35680;DHT22;21803;53.586;10.040;2022-12-08T06:23:43;17.70;44.60
35680;DHT22;21803;53.586;10.040;2022-12-08T06:26:13;17.70;44.60
35680;DHT22;21803;53.586;10.040;2022-12-08T06:28:39;17.70;44.60
35680;DHT22;21803;53.586;10.040;2022-12-08T06:31:10;17.70;44.60
35680;DHT22;21803;53.586;10.040;2022-12-08T06:33:37;17.70;44.60
35680;DHT22;21803;53.586;10.040;2022-12-08T06:36:04;17.70;44.60
35680;DHT22;21803;53.586;10.040;2022-12-08T06:38:30;17.70;44.60
35680;DHT22;21803;53.586;10.040;2022-12-08T06:40:56;17.70;44.50
35680;DHT22;21803;53.586;10.040;2022-12-08T06:43:23;17.70;44.60
35680;DHT22;21803;53.586;10.040;2022-12-08T06:45:49;17.70;44.60
35680;DHT22;21803;53.586;10.040;2022-12-08T06:48:15;17.70;44.50
35680;DHT22;21803;53.586;10.040;2022-12-08T06:50:40;17.70;44.50
35680;DHT22;21803;53.586;10.040;2022-12-08T06:53:06;17.70;44.60
35680;DHT22;21803;53.586;10.040;2022-12-08T06:55:32;17.70;44.60
35680;DHT22;21803;53.586;10.040;2022-12-08T06:57:57;16.40;43.90
35680;DHT22;21803;53.586;10.040;2022-12-08T07:00:23;17.70;44.50
35680;DHT22;21803;53.586;10.040;2022-12-08T07:02:49;17.70;44.50
35680;DHT22;21803;53.586;10.040;2022-12-08T07:05:14;17.70;44.50
35680;DHT22;21803;53.586;10.040;2022-12-08T07:07:40;17.70;44.50
35680;DHT22;21803;53.586;10.040;2022-12-08T07:10:06;17.70;44.50
35680;DHT22;21803;53.586;10.040;2022-12-08T07:12:32;17.70;44.60
35680;DHT22;21803;53.586;10.040;2022-12-08T07:14:57;17.70;44.60
35680;DHT22;21803;53.586;10.040;2022-12-08T07:17:23;17.70;44.60
35680;DHT22;21803;53.586;10.040;2022-12-08T07:19:49;17.70;44.50
35680;DHT22;21803;53.586;10.040;2022-12-08T07:22:14;17.70;44.60
35680;DHT22;21803;53.586;10.040;2022-12-08T07:24:40;17.70;44.50
35680;DHT22;21803;53.586;10.040;2022-12-08T07:27:05;17.70;44.50
35680;DHT22;21803;53.586;10.040;2022-12-08T07:29:31;17.70;44.50
35680;DHT22;21803;53.586;10.040;2022-12-08T07:31:56;17.70;44.60
35680;DHT22;21803;53.586;10.040;2022-12-08T07:34:22;17.70;44.50
35680;DHT22;21803;53.586;10.040;2022-12-08T07:36:47;17.70;44.50
35680;DHT22;21803;53.586;10.040;2022-12-08T07:39:13;17.70;44.50
35680;DHT22;21803;53.586;10.040;2022-12-08T07:41:38;17.70;44.60
35680;DHT22;21803;53.586;10.040;2022-12-08T07:44:04;17.70;44.50
35680;DHT22;21803;53.586;10.040;2022-12-08T07:46:29;17.80;44.60
35680;DHT22;21803;53.586;10.040;2022-12-08T07:48:55;17.70;44.60
35680;DHT22;21803;53.586;10.040;2022-12-08T07:51:21;17.70;44.50
35680;DHT22;21803;53.586;10.040;2022-12-08T07:53:48;17.70;44.60
35680;DHT22;21803;53.586;10.040;2022-12-08T07:56:14;17.70;44.50
35680;DHT22;21803;53.586;10.040;2022-12-08T07:58:40;17.70;44.60
35680;DHT22;21803;53.586;10.040;2022-12-08T08:01:16;17.70;44.60
35680;DHT22;21803;53.586;10.040;2022-12-08T08:03:42;17.70;44.50
35680;DHT22;21803;53.586;10.040;2022-12-08T08:06:07;17.70;44.60
35680;DHT22;21803;53.586;10.040;2022-12-08T08:08:33;17.70;44.60
35680;DHT22;21803;53.586;10.040;2022-12-08T08:10:58;17.70;44.50
35680;DHT22;21803;53.586;10.040;2022-12-08T08:13:24;17.70;44.60
35680;DHT22;21803;53.586;10.040;2022-12-08T08:15:49;17.70;44.60
35680;DHT22;21803;53.586;10.040;2022-12-08T08:18:15;17.70;44.50
35680;DHT22;21803;53.586;10.040;2022-12-08T08:20:41;17.70;44.50
35680;DHT22;21803;53.586;10.040;2022-12-08T08:23:06;17.70;44.60
35680;DHT22;21803;53.586;10.040;2022-12-08T08:25:32;17.70;44.60
35680;DHT22;21803;53.586;10.040;2022-12-08T08:27:57;17.70;44.60
35680;DHT22;21803;53.586;10.040;2022-12-08T08:30:23;17.70;44.60
35680;DHT22;21803;53.586;10.040;2022-12-08T08:32:49;17.70;44.50
35680;DHT22;21803;53.586;10.040;2022-12-08T08:35:14;17.70;44.50
35680;DHT22;21803;53.586;10.040;2022-12-08T08:37:40;17.70;45.10
35680;DHT22;21803;53.586;10.040;2022-12-08T08:40:06;17.70;44.60
35680;DHT22;21803;53.586;10.040;2022-12-08T08:42:32;17.70;44.60
35680;DHT22;21803;53.586;10.040;2022-12-08T08:44:57;17.70;44.50
35680;DHT22;21803;53.586;10.040;2022-12-08T08:47:23;17.70;44.60
35680;DHT22;21803;53.586;10.040;2022-12-08T08:49:48;17.70;44.70
35680;DHT22;21803;53.586;10.040;2022-12-08T08:52:14;17.70;44.50
35680;DHT22;21803;53.586;10.040;2022-12-08T08:54:39;17.70;44.50
35680;DHT22;21803;53.586;10.040;2022-12-08T08:57:05;17.70;44.50
35680;DHT22;21803;53.586;10.040;2022-12-08T08:59:31;17.70;44.60
35680;DHT22;21803;53.586;10.040;2022-12-08T09:01:56;17.70;44.60
35680;DHT22;21803;53.586;10.040;2022-12-08T09:04:22;17.70;44.60
35680;DHT22;21803;53.586;10.040;2022-12-08T09:06:47;17.70;44.50
35680;DHT22;21803;53.586;10.040;2022-12-08T09:09:14;17.70;44.60
35680;DHT22;21803;53.586;10.040;2022-12-08T09:11:40;17.70;44.50
35680;DHT22;21803;53.586;10.040;2022-12-08T09:14:06;17.70;44.60
35680;DHT22;21803;53.586;10.040;2022-12-08T09:16:32;17.70;44.60
35680;DHT22;21803;53.586;10.040;2022-12-08T09:18:57;17.70;44.50
35680;DHT22;21803;53.586;10.040;2022-12-08T09:21:25;17.70;44.60
35680;DHT22;21803;53.586;10.040;2022-12-08T09:23:53;17.70;44.60
35680;DHT22;21803;53.586;10.040;2022-12-08T09:26:19;17.70;44.60
35680;DHT22;21803;53.586;10.040;2022-12-08T09:28:47;17.70;44.60
35680;DHT22;21803;53.586;10.040;2022-12-08T09:31:15;17.70;44.60
35680;DHT22;21803;53.586;10.040;2022-12-08T09:33:40;17.70;44.60
35680;DHT22;21803;53.586;10.040;2022-12-08T09:36:06;17.60;44.60
35680;DHT22;21803;53.586;10.040;2022-12-08T09:38:32;17.70;44.60
35680;DHT22;21803;53.586;10.040;2022-12-08T09:40:58;17.70;44.70
35680;DHT22;21803;53.586;10.040;2022-12-08T09:43:55;17.70;44.70
35680;DHT22;21803;53.586;10.040;2022-12-08T09:46:25;17.70;44.70
35680;DHT22;21803;53.586;10.040;2022-12-08T09:48:58;17.70;44.70
35680;DHT22;21803;53.586;10.040;2022-12-08T09:51:25;17.70;44.60
35680;DHT22;21803;53.586;10.040;2022-12-08T09:53:58;17.70;44.60
35680;DHT22;21803;53.586;10.040;2022-12-08T09:56:30;17.80;44.70
35680;DHT22;21803;53.586;10.040;2022-12-08T09:59:01;17.70;44.70
35680;DHT22;21803;53.586;10.040;2022-12-08T10:01:30;17.70;44.70
35680;DHT22;21803;53.586;10.040;2022-12-08T10:03:56;17.70;44.70
35680;DHT22;21803;53.586;10.040;2022-12-08T10:06:40;17.70;44.70
35680;DHT22;21803;53.586;10.040;2022-12-08T10:09:29;17.70;44.70
35680;DHT22;21803;53.586;10.040;2022-12-08T10:12:04;17.70;44.70
35680;DHT22;21803;53.586;10.040;2022-12-08T10:14:39;17.70;44.60
35680;DHT22;21803;53.586;10.040;2022-12-08T10:19:44;17.70;44.70
35680;DHT22;21803;53.586;10.040;2022-12-08T10:22:19;17.70;44.70
35680;DHT22;21803;53.586;10.040;2022-12-08T10:24:56;17.70;44.70
35680;DHT22;21803;53.586;10.040;2022-12-08T10:27:24;17.70;44.70
35680;DHT22;21803;53.586;10.040;2022-12-08T10:29:49;17.70;44.70
35680;DHT22;21803;53.586;10.040;2022-12-08T10:32:21;17.70;44.70
35680;DHT22;21803;53.586;10.040;2022-12-08T10:37:31;17.70;44.70
35680;DHT22;21803;53.586;10.040;2022-12-08T10:40:13;17.70;44.70
35680;DHT22;21803;53.586;10.040;2022-12-08T10:42:48;17.80;44.70
35680;DHT22;21803;53.586;10.040;2022-12-08T10:45:27;17.70;44.70
35680;DHT22;21803;53.586;10.040;2022-12-08T10:48:00;17.70;44.70
35680;DHT22;21803;53.586;10.040;2022-12-08T10:50:56;17.70;44.60
35680;DHT22;21803;53.586;10.040;2022-12-08T10:53:24;17.70;44.70
35680;DHT22;21803;53.586;10.040;2022-12-08T10:58:30;17.70;44.70
35680;DHT22;21803;53.586;10.040;2022-12-08T11:01:00;17.80;44.70
35680;DHT22;21803;53.586;10.040;2022-12-08T11:03:29;17.70;44.70
35680;DHT22;21803;53.586;10.040;2022-12-08T11:05:57;17.80;44.70
35680;DHT22;21803;53.586;10.040;2022-12-08T11:08:24;17.70;44.70
35680;DHT22;21803;53.586;10.040;2022-12-08T11:10:50;17.70;44.60
35680;DHT22;21803;53.586;10.040;2022-12-08T11:13:25;17.70;44.70
35680;DHT22;21803;53.586;10.040;2022-12-08T11:15:54;17.70;44.70
35680;DHT22;21803;53.586;10.040;2022-12-08T11:18:29;17.70;44.70
35680;DHT22;21803;53.586;10.040;2022-12-08T11:21:13;17.70;44.70
35680;DHT22;21803;53.586;10.040;2022-12-08T11:23:40;17.70;44.70
35680;DHT22;21803;53.586;10.040;2022-12-08T11:26:25;17.80;44.70
35680;DHT22;21803;53.586;10.040;2022-12-08T11:28:53;17.70;44.70
35680;DHT22;21803;53.586;10.040;2022-12-08T11:31:37;19.30;45.40
35680;DHT22;21803;53.586;10.040;2022-12-08T11:34:05;17.80;44.70
35680;DHT22;21803;53.586;10.040;2022-12-08T11:36:32;17.70;44.70
35680;DHT22;21803;53.586;10.040;2022-12-08T11:39:01;17.70;44.70
35680;DHT22;21803;53.586;10.040;2022-12-08T11:41:35;17.70;44.70
35680;DHT22;21803;53.586;10.040;2022-12-08T11:44:22;17.80;44.80
35680;DHT22;21803;53.586;10.040;2022-12-08T11:46:51;17.80;44.70
35680;DHT22;21803;53.586;10.040;2022-12-08T11:49:24;17.80;44.70
35680;DHT22;21803;53.586;10.040;2022-12-08T11:51:58;16.20;44.00
35680;DHT22;21803;53.586;10.040;2022-12-08T11:54:29;17.70;44.70
35680;DHT22;21803;53.586;10.040;2022-12-08T11:57:12;17.70;44.70
35680;DHT22;21803;53.586;10.040;2022-12-08T11:59:48;17.70;44.70
35680;DHT22;21803;53.586;10.040;2022-12-08T12:05:04;17.70;44.80
35680;DHT22;21803;53.586;10.040;2022-12-08T12:19:02;17.70;44.80
35680;DHT22;21803;53.586;10.040;2022-12-08T12:21:37;17.70;44.80
35680;DHT22;21803;53.586;10.040;2022-12-08T12:24:09;17.70;44.80
35680;DHT22;21803;53.586;10.040;2022-12-08T12:26:56;17.70;44.80
35680;DHT22;21803;53.586;10.040;2022-12-08T12:29:25;17.70;44.80
35680;DHT22;21803;53.586;10.040;2022-12-08T12:31:56;17.70;44.80
35680;DHT22;21803;53.586;10.040;2022-12-08T12:34:26;17.70;44.80
35680;DHT22;21803;53.586;10.040;2022-12-08T12:36:56;17.70;44.80
35680;DHT22;21803;53.586;10.040;2022-12-08T12:39:27;17.80;44.90
35680;DHT22;21803;53.586;10.040;2022-12-08T12:41:59;17.70;44.90
35680;DHT22;21803;53.586;10.040;2022-12-08T12:57:14;17.80;45.00
35680;DHT22;21803;53.586;10.040;2022-12-08T13:02:22;17.70;45.00
35680;DHT22;21803;53.586;10.040;2022-12-08T13:07:42;17.70;45.00
35680;DHT22;21803;53.586;10.040;2022-12-08T13:15:48;17.70;45.00
35680;DHT22;21803;53.586;10.040;2022-12-08T13:18:22;17.70;45.00
35680;DHT22;21803;53.586;10.040;2022-12-08T13:21:04;17.70;45.00
35680;DHT22;21803;53.586;10.040;2022-12-08T13:23:48;17.70;45.00
35680;DHT22;21803;53.586;10.040;2022-12-08T13:26:25;17.70;45.00
35680;DHT22;21803;53.586;10.040;2022-12-08T13:31:36;17.70;45.10
35680;DHT22;21803;53.586;10.040;2022-12-08T13:34:15;17.70;45.10
35680;DHT22;21803;53.586;10.040;2022-12-08T13:45:14;17.70;45.00
35680;DHT22;21803;53.586;10.040;2022-12-08T13:50:34;17.70;45.00
35680;DHT22;21803;53.586;10.040;2022-12-08T13:53:21;17.70;45.10
35680;DHT22;21803;53.586;10.040;2022-12-08T13:55:49;17.70;45.00
35680;DHT22;21803;53.586;10.040;2022-12-08T13:58:19;17.70;45.00
35680;DHT22;21803;53.586;10.040;2022-12-08T14:00:54;17.70;45.10
35680;DHT22;21803;53.586;10.040;2022-12-08T14:03:21;17.70;45.10
35680;DHT22;21803;53.586;10.040;2022-12-08T14:05:46;17.70;45.10
35680;DHT22;21803;53.586;10.040;2022-12-08T14:08:27;17.70;45.00
35680;DHT22;21803;53.586;10.040;2022-12-08T14:11:00;17.70;45.10
35680;DHT22;21803;53.586;10.040;2022-12-08T14:13:28;17.70;45.10
35680;DHT22;21803;53.586;10.040;2022-12-08T14:15:54;17.70;45.10
35680;DHT22;21803;53.586;10.040;2022-12-08T14:18:28;17.70;45.10
35680;DHT22;21803;53.586;10.040;2022-12-08T14:21:02;17.70;45.00
35680;DHT22;21803;53.586;10.040;2022-12-08T14:23:28;17.70;45.00
35680;DHT22;21803;53.586;10.040;2022-12-08T14:25:54;17.70;45.00
35680;DHT22;21803;53.586;10.040;2022-12-08T14:28:20;17.70;45.00
35680;DHT22;21803;53.586;10.040;2022-12-08T14:30:47;17.70;45.00
35680;DHT22;21803;53.586;10.040;2022-12-08T14:33:14;17.70;45.00
35680;DHT22;21803;53.586;10.040;2022-12-08T14:35:49;17.70;45.00
35680;DHT22;21803;53.586;10.040;2022-12-08T14:38:17;17.70;45.00
35680;DHT22;21803;53.586;10.040;2022-12-08T14:40:48;17.70;45.10
35680;DHT22;21803;53.586;10.040;2022-12-08T14:43:26;17.70;45.20
35680;DHT22;21803;53.586;10.040;2022-12-08T14:46:04;17.70;45.20
35680;DHT22;21803;53.586;10.040;2022-12-08T14:56:25;17.70;45.10
35680;DHT22;21803;53.586;10.040;2022-12-08T14:59:04;17.70;45.10
35680;DHT22;21803;53.586;10.040;2022-12-08T15:01:31;17.70;45.10
35680;DHT22;21803;53.586;10.040;2022-12-08T15:04:06;17.70;45.10
35680;DHT22;21803;53.586;10.040;2022-12-08T15:06:32;17.70;45.10
35680;DHT22;21803;53.586;10.040;2022-12-08T15:08:59;17.70;45.10
35680;DHT22;21803;53.586;10.040;2022-12-08T15:11:38;17.70;45.10
35680;DHT22;21803;53.586;10.040;2022-12-08T15:14:03;17.70;45.10
35680;DHT22;21803;53.586;10.040;2022-12-08T15:16:48;17.70;45.00
35680;DHT22;21803;53.586;10.040;2022-12-08T15:19:18;17.70;45.10
35680;DHT22;21803;53.586;10.040;2022-12-08T15:21:49;17.70;45.00
35680;DHT22;21803;53.586;10.040;2022-12-08T15:24:15;17.70;45.00
35680;DHT22;21803;53.586;10.040;2022-12-08T15:26:46;17.70;45.00
35680;DHT22;21803;53.586;10.040;2022-12-08T15:29:29;17.70;45.60
35680;DHT22;21803;53.586;10.040;2022-12-08T15:31:58;17.70;44.90
35680;DHT22;21803;53.586;10.040;2022-12-08T15:34:24;17.70;44.90
35680;DHT22;21803;53.586;10.040;2022-12-08T15:36:51;17.70;44.90
35680;DHT22;21803;53.586;10.040;2022-12-08T15:41:55;17.70;44.90
35680;DHT22;21803;53.586;10.040;2022-12-08T15:44:21;17.70;44.90
35680;DHT22;21803;53.586;10.040;2022-12-08T15:46:47;17.70;44.90
35680;DHT22;21803;53.586;10.040;2022-12-08T15:49:19;17.70;44.90
35680;DHT22;21803;53.586;10.040;2022-12-08T15:51:45;17.70;44.90
35680;DHT22;21803;53.586;10.040;2022-12-08T15:54:11;17.70;44.90
35680;DHT22;21803;53.586;10.040;2022-12-08T15:56:51;17.70;44.90
35680;DHT22;21803;53.586;10.040;2022-12-08T15:59:19;17.70;44.90
35680;DHT22;21803;53.586;10.040;2022-12-08T16:01:45;17.70;44.90
35680;DHT22;21803;53.586;10.040;2022-12-08T16:04:13;17.70;44.90
35680;DHT22;21803;53.586;10.040;2022-12-08T16:06:40;17.70;44.90
35680;DHT22;21803;53.586;10.040;2022-12-08T16:09:33;17.70;44.90
35680;DHT22;21803;53.586;10.040;2022-12-08T16:11:57;17.70;44.90
35680;DHT22;21803;53.586;10.040;2022-12-08T16:14:41;17.70;44.90
35680;DHT22;21803;53.586;10.040;2022-12-08T16:17:17;17.70;44.80
35680;DHT22;21803;53.586;10.040;2022-12-08T16:19:43;17.70;44.90
35680;DHT22;21803;53.586;10.040;2022-12-08T16:22:17;17.70;44.90
35680;DHT22;21803;53.586;10.040;2022-12-08T16:24:43;17.70;44.90
35680;DHT22;21803;53.586;10.040;2022-12-08T16:27:28;17.70;44.90
35680;DHT22;21803;53.586;10.040;2022-12-08T16:29:56;17.70;45.40
35680;DHT22;21803;53.586;10.040;2022-12-08T16:32:22;17.70;44.80
35680;DHT22;21803;53.586;10.040;2022-12-08T16:34:49;17.70;44.90
35680;DHT22;21803;53.586;10.040;2022-12-08T16:37:23;17.70;44.80
35680;DHT22;21803;53.586;10.040;2022-12-08T16:39:50;17.70;44.80
35680;DHT22;21803;53.586;10.040;2022-12-08T16:42:28;17.70;44.80
35680;DHT22;21803;53.586;10.040;2022-12-08T16:45:34;17.70;44.80
35680;DHT22;21803;53.586;10.040;2022-12-08T16:48:01;17.70;44.80
35680;DHT22;21803;53.586;10.040;2022-12-08T16:50:29;17.70;44.90
35680;DHT22;21803;53.586;10.040;2022-12-08T16:53:03;17.70;44.80
35680;DHT22;21803;53.586;10.040;2022-12-08T16:55:29;17.70;44.80
35680;DHT22;21803;53.586;10.040;2022-12-08T16:57:55;17.70;44.80
35680;DHT22;21803;53.586;10.040;2022-12-08T17:00:24;17.70;44.80
35680;DHT22;21803;53.586;10.040;2022-12-08T17:02:50;17.70;44.80
35680;DHT22;21803;53.586;10.040;2022-12-08T17:05:18;17.70;44.80
35680;DHT22;21803;53.586;10.040;2022-12-08T17:07:45;17.70;44.80